KDVT

Details ICAO KDVT (DVT)
Name PHOENIX DEER VALLEY
Region United States
Timezone America/Phoenix (UTC-7.0)
Plans Departing 73
Arriving 36
Stats Elevation 1,478 ft / 450 m (AMSL)
Location 33.688604° -112.082441°
Runways 2
Magnetic Variation 10.335° E
Sunrise 2018-05-24 12:23:29 UTC / 2018-05-24 05:23:29 Local
Sunset 2018-05-25 02:29:47 UTC / 2018-05-24 19:29:47 Local
Advertisement - Login to hide

Runways

ID Width Length Bearing (true) Bearing (mag) Surface Threshold Offset Overrun Length
07L 75 ft / 23 m 4,491 ft / 1,369 m 86.00° 75.66° Asphalt 0 ft / 0 m 0 ft / 0 m
07R 100 ft / 30 m 8,192 ft / 2,497 m 85.98° 75.64° Asphalt 897 ft / 273 m 154 ft / 47 m
25L 100 ft / 30 m 8,192 ft / 2,497 m 266.00° 255.66° Asphalt 930 ft / 283 m 140 ft / 43 m
25R 75 ft / 23 m 4,491 ft / 1,369 m 266.01° 255.67° Asphalt 0 ft / 0 m 0 ft / 0 m

Map

Weather


0- 5 10 15 20 25 30 35+ Temperature / ° C

Clouds and Precipitation
Forecast for 2018-05-24 18:00 UTC. Updated 2 hours ago

Ground ~20,000 ft ~40,000 ft Winds

METAR

KDVT 241853Z AUTO 17008KT 10SM CLR 32/M02 A2998 RMK AO2 SLP127 T03221017

TAF

Not found

Frequencies

Recorded 126.50 MHz ATIS
Unicom 122.95 MHz UNICOM
Ground 121.80 MHz GND
Tower 120.20 MHz DEER VALLEY TWR
Unicom 118.40 MHz CTAF
Clearance 123.90 MHz CLNC DEL
Tower 118.40 MHz DEER VALLEY TWR
Approach 120.70 MHz APP/DEP
Warning: Do not use this data for real-world aviation or navigation. No guarantee of current accuracy is given.